createdAt,value
2017-10-12T00:00:42.839Z,1009.73
2017-10-12T00:01:42.842Z,1009.76
2017-10-12T00:02:42.841Z,1009.80
2017-10-12T00:03:42.840Z,1009.79
2017-10-12T00:04:42.836Z,1009.78
2017-10-12T00:05:42.833Z,1009.84
2017-10-12T00:06:42.832Z,1009.90
2017-10-12T00:07:42.831Z,1009.94
2017-10-12T00:08:42.827Z,1009.91
2017-10-12T00:09:42.822Z,1009.92
2017-10-12T00:10:42.820Z,1009.89
2017-10-12T00:11:42.819Z,1009.91
2017-10-12T00:12:42.816Z,1009.95
2017-10-12T00:13:42.814Z,1009.95
2017-10-12T00:14:42.811Z,1009.97
2017-10-12T00:15:42.811Z,1009.94
2017-10-12T00:16:42.807Z,1009.90
2017-10-12T00:17:42.810Z,1009.88
2017-10-12T00:18:42.810Z,1009.78
2017-10-12T00:19:42.806Z,1009.93
2017-10-12T00:20:42.805Z,1009.84
2017-10-12T00:21:42.802Z,1009.92
2017-10-12T00:22:42.801Z,1009.80
2017-10-12T00:23:42.798Z,1009.89
2017-10-12T00:24:42.794Z,1009.88
2017-10-12T00:25:42.790Z,1009.94
2017-10-12T00:26:42.788Z,1009.89
2017-10-12T00:27:42.785Z,1009.90
2017-10-12T00:28:42.785Z,1009.83
2017-10-12T00:29:42.781Z,1009.86
2017-10-12T00:30:42.779Z,1009.84
2017-10-12T00:31:42.778Z,1009.76
2017-10-12T00:32:42.778Z,1009.84
2017-10-12T00:33:42.778Z,1009.77
2017-10-12T00:34:42.786Z,1009.79
2017-10-12T00:35:42.774Z,1009.76
2017-10-12T00:36:42.771Z,1009.85
2017-10-12T00:37:42.769Z,1009.78
2017-10-12T00:38:42.768Z,1009.80
2017-10-12T00:39:42.766Z,1009.87
2017-10-12T00:40:42.763Z,1009.76
2017-10-12T00:41:42.758Z,1009.77
2017-10-12T00:42:42.756Z,1009.82
2017-10-12T00:43:42.754Z,1009.77
2017-10-12T00:44:42.752Z,1009.80
2017-10-12T00:45:42.750Z,1009.72
2017-10-12T00:46:42.750Z,1009.74
2017-10-12T00:47:42.746Z,1009.75
2017-10-12T00:48:42.744Z,1009.74
2017-10-12T00:49:42.746Z,1009.68
2017-10-12T00:50:42.743Z,1009.71
2017-10-12T00:51:42.742Z,1009.65
2017-10-12T00:52:42.740Z,1009.70
2017-10-12T00:53:42.739Z,1009.68
2017-10-12T00:54:42.737Z,1009.72
2017-10-12T00:55:42.733Z,1009.69
2017-10-12T00:56:42.731Z,1009.66
2017-10-12T00:57:42.728Z,1009.69
2017-10-12T00:58:42.724Z,1009.63
2017-10-12T00:59:42.723Z,1009.63
2017-10-12T01:00:42.721Z,1009.63
2017-10-12T01:01:42.724Z,1009.54
2017-10-12T01:02:42.722Z,1009.63
2017-10-12T01:03:42.720Z,1009.67
2017-10-12T01:04:42.717Z,1009.60
2017-10-12T01:05:42.711Z,1009.60
2017-10-12T01:06:42.710Z,1009.62
2017-10-12T01:07:42.708Z,1009.60
2017-10-12T01:08:42.705Z,1009.68
2017-10-12T01:09:42.703Z,1009.72
2017-10-12T01:10:42.702Z,1009.72
2017-10-12T01:11:42.701Z,1009.70
2017-10-12T01:12:42.697Z,1009.74
2017-10-12T01:13:42.700Z,1009.75
2017-10-12T01:14:42.698Z,1009.75
2017-10-12T01:15:42.696Z,1009.76
2017-10-12T01:16:42.694Z,1009.75
2017-10-12T01:17:42.692Z,1009.76
2017-10-12T01:18:42.690Z,1009.70
2017-10-12T01:19:42.688Z,1009.75
2017-10-12T01:20:42.686Z,1009.79
2017-10-12T01:21:42.680Z,1009.75
2017-10-12T01:22:42.680Z,1009.76
2017-10-12T01:23:42.677Z,1009.76
2017-10-12T01:24:42.673Z,1009.83
2017-10-12T01:25:42.671Z,1009.75
2017-10-12T01:26:42.675Z,1009.72
2017-10-12T01:27:42.669Z,1009.82
2017-10-12T01:28:42.666Z,1009.75
2017-10-12T01:29:42.667Z,1009.76
2017-10-12T01:30:42.666Z,1009.75
2017-10-12T01:31:42.665Z,1009.76
2017-10-12T01:32:42.662Z,1009.68
2017-10-12T01:33:42.660Z,1009.76
2017-10-12T01:34:42.658Z,1009.76
2017-10-12T01:35:42.657Z,1009.79
2017-10-12T01:36:42.654Z,1009.68
2017-10-12T01:37:42.647Z,1009.74
2017-10-12T01:38:42.645Z,1009.59
2017-10-12T01:39:42.645Z,1009.62
2017-10-12T01:40:42.642Z,1009.68
2017-10-12T01:41:42.641Z,1009.59
2017-10-12T01:42:42.638Z,1009.67
2017-10-12T01:43:42.635Z,1009.64
2017-10-12T01:44:42.634Z,1009.65
2017-10-12T01:45:42.636Z,1009.58
2017-10-12T01:46:42.633Z,1009.62
2017-10-12T01:47:42.633Z,1009.67
2017-10-12T01:48:42.630Z,1009.70
2017-10-12T01:49:42.628Z,1009.69
2017-10-12T01:50:42.625Z,1009.76
2017-10-12T01:51:42.624Z,1009.70
2017-10-12T01:52:42.620Z,1009.72
2017-10-12T01:53:42.615Z,1009.79
2017-10-12T01:54:42.611Z,1009.74
2017-10-12T01:55:42.609Z,1009.78
2017-10-12T01:56:42.608Z,1009.80
2017-10-12T01:57:42.606Z,1009.86
2017-10-12T01:58:42.602Z,1009.74
2017-10-12T01:59:42.600Z,1009.81
2017-10-12T02:00:42.601Z,1009.74
2017-10-12T02:01:42.601Z,1009.70
2017-10-12T02:02:42.599Z,1009.71
2017-10-12T02:03:42.595Z,1009.78
2017-10-12T02:04:42.593Z,1009.83
2017-10-12T02:05:42.587Z,1009.84
2017-10-12T02:06:42.586Z,1009.80
2017-10-12T02:07:42.583Z,1009.81
2017-10-12T02:08:42.580Z,1009.85
2017-10-12T02:09:42.583Z,1009.89
2017-10-12T02:10:42.584Z,1009.85
2017-10-12T02:11:42.578Z,1009.89
2017-10-12T02:12:42.576Z,1009.82
2017-10-12T02:13:42.573Z,1009.78
2017-10-12T02:14:42.575Z,1009.80
2017-10-12T02:15:42.570Z,1009.85
2017-10-12T02:16:42.567Z,1009.86
2017-10-12T02:17:42.560Z,1009.87
2017-10-12T02:18:42.560Z,1009.92
2017-10-12T02:19:42.557Z,1009.99
2017-10-12T02:20:42.553Z,1009.92
2017-10-12T02:21:42.551Z,1010.00
2017-10-12T02:22:42.549Z,1009.97
2017-10-12T02:23:42.546Z,1009.93
2017-10-12T02:24:42.545Z,1009.97
2017-10-12T02:25:42.547Z,1010.02
2017-10-12T02:26:42.545Z,1010.07
2017-10-12T02:27:42.543Z,1009.90
2017-10-12T02:28:42.540Z,1009.90
2017-10-12T02:29:42.538Z,1009.91
2017-10-12T02:30:42.561Z,1009.95
2017-10-12T02:31:42.539Z,1009.99
2017-10-12T02:32:42.531Z,1009.97
2017-10-12T02:33:42.526Z,1010.05
2017-10-12T02:34:42.523Z,1009.97
2017-10-12T02:35:42.523Z,1010.07
2017-10-12T02:36:42.517Z,1010.12
2017-10-12T02:37:42.516Z,1010.07
2017-10-12T02:38:42.512Z,1010.09
2017-10-12T02:39:42.511Z,1010.08
2017-10-12T02:40:42.510Z,1010.06
2017-10-12T02:41:42.511Z,1010.07
2017-10-12T02:42:42.508Z,1010.08
2017-10-12T02:43:42.511Z,1010.08
2017-10-12T02:44:42.504Z,1010.09
2017-10-12T02:45:42.501Z,1010.13
2017-10-12T02:46:42.518Z,1010.09
2017-10-12T02:47:42.498Z,1010.14
2017-10-12T02:48:42.494Z,1010.18
2017-10-12T02:49:42.487Z,1010.25
2017-10-12T02:50:42.487Z,1010.15
2017-10-12T02:51:42.483Z,1010.18
2017-10-12T02:52:42.481Z,1010.13
2017-10-12T02:53:42.480Z,1010.11
2017-10-12T02:54:42.479Z,1010.08
2017-10-12T02:55:42.475Z,1010.17
2017-10-12T02:56:42.472Z,1010.06
2017-10-12T02:57:42.475Z,1010.04
2017-10-12T02:58:42.471Z,1010.08
2017-10-12T02:59:42.470Z,1010.11
2017-10-12T03:00:42.468Z,1010.14
2017-10-12T03:01:42.465Z,1010.20
2017-10-12T03:02:42.462Z,1010.06
2017-10-12T03:03:42.460Z,1010.13
2017-10-12T03:04:42.458Z,1010.09
2017-10-12T03:05:42.453Z,1010.13
2017-10-12T03:06:42.457Z,1010.20
2017-10-12T03:07:42.446Z,1010.13
2017-10-12T03:08:42.444Z,1010.19
2017-10-12T03:09:42.442Z,1010.19
2017-10-12T03:10:42.443Z,1010.23
2017-10-12T03:11:42.437Z,1010.21
2017-10-12T03:12:42.439Z,1010.21
2017-10-12T03:13:42.435Z,1010.25
2017-10-12T03:14:42.434Z,1010.26
2017-10-12T03:15:42.432Z,1010.13
2017-10-12T03:16:42.429Z,1010.27
2017-10-12T03:17:42.427Z,1010.15
2017-10-12T03:18:42.424Z,1010.27
2017-10-12T03:19:42.423Z,1010.24
2017-10-12T03:20:42.418Z,1010.22
2017-10-12T03:21:42.412Z,1010.14
2017-10-12T03:22:42.409Z,1010.24
2017-10-12T03:23:42.408Z,1010.34
2017-10-12T03:24:42.405Z,1010.28
2017-10-12T03:25:42.402Z,1010.27
2017-10-12T03:26:42.401Z,1010.34
2017-10-12T03:27:42.397Z,1010.37
2017-10-12T03:28:42.395Z,1010.37
2017-10-12T03:29:42.396Z,1010.33
2017-10-12T03:30:42.395Z,1010.41
2017-10-12T03:31:42.395Z,1010.39
2017-10-12T03:32:42.390Z,1010.38
2017-10-12T03:33:42.388Z,1010.42
2017-10-12T03:34:42.384Z,1010.43
2017-10-12T03:35:42.389Z,1010.52
2017-10-12T03:36:42.380Z,1010.51
2017-10-12T03:37:42.374Z,1010.53
2017-10-12T03:38:42.371Z,1010.57
2017-10-12T03:39:42.377Z,1010.56
2017-10-12T03:40:42.368Z,1010.62
2017-10-12T03:41:42.364Z,1010.66
2017-10-12T03:42:42.363Z,1010.63
2017-10-12T03:43:42.360Z,1010.61
2017-10-12T03:44:42.358Z,1010.71
2017-10-12T03:45:42.359Z,1010.57
2017-10-12T03:46:42.358Z,1010.56
2017-10-12T03:47:42.356Z,1010.51
2017-10-12T03:48:42.353Z,1010.54
2017-10-12T03:49:42.350Z,1010.55
2017-10-12T03:50:42.350Z,1010.53
2017-10-12T03:51:42.347Z,1010.53
2017-10-12T03:52:42.344Z,1010.52
2017-10-12T03:53:42.337Z,1010.51
2017-10-12T03:54:42.335Z,1010.51
2017-10-12T03:55:42.333Z,1010.49
2017-10-12T03:56:42.329Z,1010.61
2017-10-12T03:57:42.327Z,1010.58
2017-10-12T03:58:42.325Z,1010.56
2017-10-12T03:59:42.324Z,1010.62
2017-10-12T04:00:42.320Z,1010.66
2017-10-12T04:01:42.323Z,1010.63
2017-10-12T04:02:42.320Z,1010.66
2017-10-12T04:03:42.319Z,1010.74
2017-10-12T04:04:42.321Z,1010.82
2017-10-12T04:05:42.313Z,1010.86
2017-10-12T04:06:42.311Z,1010.95
2017-10-12T04:07:42.308Z,1010.97
2017-10-12T04:08:42.304Z,1010.95
2017-10-12T04:09:42.299Z,1010.99
2017-10-12T04:10:42.296Z,1010.99
2017-10-12T04:11:42.292Z,1010.95
2017-10-12T04:12:42.290Z,1011.02
2017-10-12T04:13:42.292Z,1011.01
2017-10-12T04:14:42.290Z,1010.97
2017-10-12T04:15:42.292Z,1010.97
2017-10-12T04:16:42.284Z,1011.03
2017-10-12T04:17:42.278Z,1011.03
2017-10-12T04:18:42.277Z,1011.02
2017-10-12T04:19:42.272Z,1011.10
2017-10-12T04:20:42.269Z,1011.18
2017-10-12T04:21:42.267Z,1011.25
2017-10-12T04:22:42.265Z,1011.21
2017-10-12T04:23:42.261Z,1011.22
2017-10-12T04:24:42.258Z,1011.19
2017-10-12T04:25:42.260Z,1011.19
2017-10-12T04:26:42.259Z,1011.23
2017-10-12T04:27:42.256Z,1011.23
2017-10-12T04:28:42.253Z,1011.29
2017-10-12T04:29:42.250Z,1011.26
2017-10-12T04:30:42.248Z,1011.28
2017-10-12T04:31:42.246Z,1011.31
2017-10-12T04:32:42.243Z,1011.28
2017-10-12T04:33:42.237Z,1011.31
2017-10-12T04:34:42.233Z,1011.26
2017-10-12T04:35:42.232Z,1011.27
2017-10-12T04:36:42.228Z,1011.38
2017-10-12T04:37:42.234Z,1011.39
2017-10-12T04:38:42.224Z,1011.35
2017-10-12T04:39:42.222Z,1011.38
2017-10-12T04:40:42.220Z,1011.37
2017-10-12T04:41:42.222Z,1011.35
2017-10-12T04:42:42.219Z,1011.42
2017-10-12T04:43:42.216Z,1011.47
2017-10-12T04:44:42.215Z,1011.44
2017-10-12T04:45:42.213Z,1011.44
2017-10-12T04:46:42.209Z,1011.55
2017-10-12T04:47:42.209Z,1011.56
2017-10-12T04:48:42.208Z,1011.60
2017-10-12T04:49:42.199Z,1011.63
2017-10-12T04:50:42.196Z,1011.77
2017-10-12T04:51:42.195Z,1011.78
2017-10-12T04:52:42.193Z,1011.79
2017-10-12T04:53:42.205Z,1011.83
2017-10-12T04:54:42.188Z,1011.80
2017-10-12T04:55:42.186Z,1011.85
2017-10-12T04:56:42.183Z,1011.89
2017-10-12T04:57:42.186Z,1011.88
2017-10-12T04:58:42.184Z,1011.89
2017-10-12T04:59:42.181Z,1011.90
2017-10-12T05:00:42.179Z,1011.90
2017-10-12T05:01:42.176Z,1012.02
2017-10-12T05:02:42.175Z,1012.02
2017-10-12T05:03:42.172Z,1012.10
2017-10-12T05:04:42.169Z,1012.19
2017-10-12T05:05:42.162Z,1012.15
2017-10-12T05:06:42.162Z,1012.19
2017-10-12T05:07:42.158Z,1012.13
2017-10-12T05:08:42.157Z,1012.23
2017-10-12T05:09:42.157Z,1012.22
2017-10-12T05:10:42.166Z,1012.25
2017-10-12T05:11:42.150Z,1012.25
2017-10-12T05:12:42.147Z,1012.31
2017-10-12T05:13:42.150Z,1012.41
2017-10-12T05:14:42.148Z,1012.38
2017-10-12T05:15:42.147Z,1012.50
2017-10-12T05:16:42.143Z,1012.49
2017-10-12T05:17:42.136Z,1012.52
2017-10-12T05:18:42.134Z,1012.57
2017-10-12T05:19:42.138Z,1012.59
2017-10-12T05:20:42.129Z,1012.67
2017-10-12T05:21:42.131Z,1012.64
2017-10-12T05:22:42.130Z,1012.58
2017-10-12T05:23:42.128Z,1012.71
2017-10-12T05:24:42.124Z,1012.75
2017-10-12T05:25:42.120Z,1012.79
2017-10-12T05:26:42.120Z,1012.86
2017-10-12T05:27:42.119Z,1012.90
2017-10-12T05:28:42.115Z,1012.92
2017-10-12T05:29:42.107Z,1012.95
2017-10-12T05:30:42.106Z,1013.00
2017-10-12T05:31:42.105Z,1012.99
2017-10-12T05:32:42.100Z,1013.07
2017-10-12T05:33:42.100Z,1013.10
2017-10-12T05:34:42.095Z,1013.07
2017-10-12T05:35:42.093Z,1013.07
2017-10-12T05:36:42.091Z,1013.10
2017-10-12T05:37:42.093Z,1013.10
2017-10-12T05:38:42.089Z,1013.13
2017-10-12T05:39:42.089Z,1013.18
2017-10-12T05:40:42.085Z,1013.26
2017-10-12T05:41:42.082Z,1013.23
2017-10-12T05:42:42.083Z,1013.29
2017-10-12T05:43:42.078Z,1013.23
2017-10-12T05:44:42.072Z,1013.23
2017-10-12T05:45:42.065Z,1013.34
2017-10-12T05:46:42.064Z,1013.31
2017-10-12T05:47:42.061Z,1013.26
2017-10-12T05:48:42.058Z,1013.25
2017-10-12T05:49:42.054Z,1013.32
2017-10-12T05:50:42.052Z,1013.32
2017-10-12T05:51:42.049Z,1013.36
2017-10-12T05:52:42.047Z,1013.36
2017-10-12T05:53:42.046Z,1013.42
2017-10-12T05:54:42.043Z,1013.44
2017-10-12T05:55:42.040Z,1013.43
2017-10-12T05:56:42.036Z,1013.48
2017-10-12T05:57:42.034Z,1013.50
2017-10-12T05:58:42.031Z,1013.51
2017-10-12T05:59:42.027Z,1013.50
2017-10-12T06:00:42.023Z,1013.58
2017-10-12T06:01:42.017Z,1013.63
2017-10-12T06:02:42.015Z,1013.60
2017-10-12T06:03:42.018Z,1013.59
2017-10-12T06:04:42.007Z,1013.61
2017-10-12T06:05:42.003Z,1013.63
2017-10-12T06:06:42.003Z,1013.64
2017-10-12T06:07:41.996Z,1013.67
2017-10-12T06:08:41.994Z,1013.73
2017-10-12T06:09:41.995Z,1013.71
2017-10-12T06:10:41.992Z,1013.75
2017-10-12T06:11:41.989Z,1013.77
2017-10-12T06:12:41.984Z,1013.73
2017-10-12T06:13:41.983Z,1013.80
2017-10-12T06:14:41.979Z,1013.83
2017-10-12T06:15:41.975Z,1013.83
2017-10-12T06:16:41.975Z,1013.87
2017-10-12T06:17:41.965Z,1013.96
2017-10-12T06:18:41.965Z,1014.02
2017-10-12T06:19:41.960Z,1014.03
2017-10-12T06:20:41.956Z,1014.07
2017-10-12T06:21:41.958Z,1014.06
2017-10-12T06:22:41.955Z,1014.12
2017-10-12T06:23:41.953Z,1014.18
2017-10-12T06:24:41.948Z,1014.28
2017-10-12T06:25:41.942Z,1014.27
2017-10-12T06:26:41.938Z,1014.31
2017-10-12T06:27:41.938Z,1014.26
2017-10-12T06:28:41.934Z,1014.26
2017-10-12T06:29:41.931Z,1014.17
2017-10-12T06:30:41.930Z,1014.18
2017-10-12T06:31:41.928Z,1014.11
2017-10-12T06:32:41.927Z,1014.14
2017-10-12T06:33:41.929Z,1014.12
2017-10-12T06:34:41.926Z,1014.15
2017-10-12T06:35:41.929Z,1014.19
2017-10-12T06:36:41.929Z,1014.19
2017-10-12T06:37:41.922Z,1014.24
2017-10-12T06:38:41.920Z,1014.22
2017-10-12T06:39:41.919Z,1014.31
2017-10-12T06:40:41.917Z,1014.34
2017-10-12T06:41:41.910Z,1014.35
2017-10-12T06:42:41.910Z,1014.36
2017-10-12T06:43:41.907Z,1014.34
2017-10-12T06:44:41.904Z,1014.38
2017-10-12T06:45:41.904Z,1014.39
2017-10-12T06:46:41.902Z,1014.48
2017-10-12T06:47:41.901Z,1014.50
2017-10-12T06:48:41.899Z,1014.50
2017-10-12T06:49:41.902Z,1014.50
2017-10-12T06:50:41.899Z,1014.57
2017-10-12T06:51:41.897Z,1014.59
2017-10-12T06:52:41.896Z,1014.58
2017-10-12T06:53:41.895Z,1014.60
2017-10-12T06:54:41.892Z,1014.64
2017-10-12T06:55:41.891Z,1014.70
2017-10-12T06:56:41.888Z,1014.69
2017-10-12T06:57:41.882Z,1014.94
2017-10-12T06:58:41.881Z,1015.18
2017-10-12T06:59:41.885Z,1015.13
2017-10-12T07:00:41.880Z,1015.17
2017-10-12T07:01:41.877Z,1015.23
2017-10-12T07:02:41.876Z,1015.17
2017-10-12T07:03:41.874Z,1014.87
2017-10-12T07:04:41.873Z,1014.90
2017-10-12T07:05:41.876Z,1014.93
2017-10-12T07:06:41.880Z,1014.94
2017-10-12T07:07:41.907Z,1014.97
2017-10-12T07:08:41.874Z,1014.98
2017-10-12T07:09:41.874Z,1015.04
2017-10-12T07:10:41.873Z,1015.08
2017-10-12T07:11:41.876Z,1015.11
2017-10-12T07:12:41.874Z,1015.02
2017-10-12T07:13:41.870Z,1015.10
2017-10-12T07:14:41.871Z,1015.15
2017-10-12T07:15:41.875Z,1015.17
2017-10-12T07:16:41.869Z,1015.25
2017-10-12T07:17:41.871Z,1015.23
2017-10-12T07:18:41.871Z,1015.29
2017-10-12T07:19:41.871Z,1015.31
2017-10-12T07:20:41.871Z,1015.28
2017-10-12T07:21:41.876Z,1015.26
2017-10-12T07:22:41.879Z,1015.32
2017-10-12T07:23:41.877Z,1015.27
2017-10-12T07:24:41.879Z,1015.37
2017-10-12T07:25:41.875Z,1015.39
2017-10-12T07:26:41.880Z,1015.39
2017-10-12T07:27:41.877Z,1015.43
2017-10-12T07:28:41.877Z,1015.43
2017-10-12T07:29:41.884Z,1015.42
2017-10-12T07:30:41.887Z,1015.45
2017-10-12T07:31:41.886Z,1015.52
2017-10-12T07:32:41.886Z,1015.61
2017-10-12T07:33:41.885Z,1015.58
2017-10-12T07:34:41.886Z,1015.64
2017-10-12T07:35:41.889Z,1015.62
2017-10-12T07:36:41.889Z,1015.65
2017-10-12T07:37:41.885Z,1015.64
2017-10-12T07:38:41.886Z,1015.71
2017-10-12T07:39:41.889Z,1015.67
2017-10-12T07:40:41.893Z,1015.71
2017-10-12T07:41:41.889Z,1015.64
2017-10-12T07:42:41.891Z,1015.67
2017-10-12T07:43:41.892Z,1015.72
2017-10-12T07:44:41.894Z,1015.75
2017-10-12T07:45:41.899Z,1015.76
2017-10-12T07:46:41.900Z,1015.82
2017-10-12T07:47:41.901Z,1015.79
2017-10-12T07:48:41.954Z,1015.86
2017-10-12T07:49:41.905Z,1015.86
2017-10-12T07:50:41.907Z,1015.86
2017-10-12T07:51:41.908Z,1015.90
2017-10-12T07:52:41.910Z,1015.90
2017-10-12T07:53:41.906Z,1015.97
2017-10-12T07:54:41.909Z,1016.01
2017-10-12T07:55:41.911Z,1016.02
2017-10-12T07:56:41.913Z,1016.01
2017-10-12T07:57:41.914Z,1016.04
2017-10-12T07:58:41.916Z,1016.04
2017-10-12T07:59:41.923Z,1016.06
2017-10-12T08:00:41.918Z,1016.11
2017-10-12T08:01:41.925Z,1016.07
2017-10-12T08:02:41.928Z,1016.09
2017-10-12T08:03:41.928Z,1016.06
2017-10-12T08:04:41.930Z,1016.11
2017-10-12T08:05:41.932Z,1016.15
2017-10-12T08:06:41.933Z,1016.14
2017-10-12T08:07:41.935Z,1016.11
2017-10-12T08:08:41.991Z,1016.12
2017-10-12T08:09:41.932Z,1016.13
2017-10-12T08:10:41.936Z,1016.13
2017-10-12T08:11:41.936Z,1016.06
2017-10-12T08:12:41.937Z,1016.04
2017-10-12T08:13:41.938Z,1016.07
2017-10-12T08:14:41.940Z,1016.06
2017-10-12T08:15:41.941Z,1016.07
2017-10-12T08:16:41.941Z,1016.09
2017-10-12T08:17:41.947Z,1016.13
2017-10-12T08:18:41.948Z,1016.21
2017-10-12T08:19:41.950Z,1016.15
2017-10-12T08:20:41.950Z,1016.14
2017-10-12T08:21:41.951Z,1016.19
2017-10-12T08:22:41.953Z,1016.21
2017-10-12T08:23:41.953Z,1016.17
2017-10-12T08:24:41.954Z,1016.23
2017-10-12T08:25:41.952Z,1016.26
2017-10-12T08:26:41.960Z,1016.40
2017-10-12T08:27:41.955Z,1016.32
2017-10-12T08:28:41.956Z,1016.35
2017-10-12T08:29:41.960Z,1016.29
2017-10-12T08:30:41.972Z,1016.29
2017-10-12T08:31:41.965Z,1016.30
2017-10-12T08:32:41.965Z,1016.32
2017-10-12T08:33:41.964Z,1016.32
2017-10-12T08:34:41.966Z,1016.30
2017-10-12T08:35:41.966Z,1016.29
2017-10-12T08:36:41.968Z,1016.42
2017-10-12T08:37:41.972Z,1016.39
2017-10-12T08:38:41.973Z,1016.42
2017-10-12T08:39:41.974Z,1016.48
2017-10-12T08:40:41.977Z,1016.47
2017-10-12T08:41:41.982Z,1016.47
2017-10-12T08:42:41.984Z,1016.46
2017-10-12T08:43:41.987Z,1016.46
2017-10-12T08:44:41.987Z,1016.46
2017-10-12T08:45:41.990Z,1016.50
2017-10-12T08:46:41.998Z,1016.48
2017-10-12T08:47:41.996Z,1016.45
2017-10-12T08:48:41.998Z,1016.51
2017-10-12T08:49:41.995Z,1016.46
2017-10-12T08:50:41.999Z,1016.48
2017-10-12T08:51:41.999Z,1016.51
2017-10-12T08:52:42.002Z,1016.60
2017-10-12T08:53:42.004Z,1016.61
2017-10-12T08:54:42.007Z,1016.68
2017-10-12T08:55:42.011Z,1016.70
2017-10-12T08:56:42.012Z,1016.77
2017-10-12T08:57:42.018Z,1016.70
2017-10-12T08:58:42.023Z,1016.96
2017-10-12T08:59:42.025Z,1016.95
2017-10-12T09:00:42.029Z,1016.76
2017-10-12T09:01:42.032Z,1016.71
2017-10-12T09:02:42.035Z,1016.67
2017-10-12T09:03:42.040Z,1016.97
2017-10-12T09:04:42.043Z,1016.80
2017-10-12T09:05:42.044Z,1016.94
2017-10-12T09:06:42.048Z,1016.69
2017-10-12T09:07:42.076Z,1016.68
2017-10-12T09:08:42.058Z,1017.09
2017-10-12T09:09:42.062Z,1017.09
2017-10-12T09:10:42.069Z,1017.09
2017-10-12T09:11:42.072Z,1017.23
2017-10-12T09:12:42.082Z,1017.07
2017-10-12T09:13:42.103Z,1016.89
2017-10-12T09:14:42.094Z,1017.02
2017-10-12T09:15:42.100Z,1017.08
2017-10-12T09:16:42.107Z,1016.98
2017-10-12T09:17:42.113Z,1016.93
2017-10-12T09:18:42.120Z,1017.02
2017-10-12T09:19:42.128Z,1017.26
2017-10-12T09:20:42.134Z,1017.39
2017-10-12T09:21:42.139Z,1017.30
2017-10-12T09:22:42.146Z,1017.45
2017-10-12T09:23:42.161Z,1017.53
2017-10-12T09:24:42.161Z,1017.28
2017-10-12T09:25:42.169Z,1017.03
2017-10-12T09:26:42.178Z,1017.47
2017-10-12T09:27:42.184Z,1017.49
2017-10-12T09:28:42.192Z,1017.38
2017-10-12T09:29:42.205Z,1017.60
2017-10-12T09:30:42.213Z,1017.51
2017-10-12T09:31:42.221Z,1017.47
2017-10-12T09:32:42.230Z,1017.58
2017-10-12T09:33:42.235Z,1017.57
2017-10-12T09:34:42.244Z,1017.68
2017-10-12T09:35:42.255Z,1017.77
2017-10-12T09:36:42.263Z,1017.68
2017-10-12T09:37:42.276Z,1017.66
2017-10-12T09:38:42.289Z,1017.64
2017-10-12T09:39:42.299Z,1017.28
2017-10-12T09:40:42.316Z,1017.25
2017-10-12T09:41:42.320Z,1017.27
2017-10-12T09:42:42.329Z,1017.34
2017-10-12T09:43:42.342Z,1017.30
2017-10-12T09:44:42.350Z,1017.44
2017-10-12T09:45:42.357Z,1017.41
2017-10-12T09:46:42.370Z,1017.30
2017-10-12T09:47:42.395Z,1017.62
2017-10-12T09:48:42.386Z,1017.65
2017-10-12T09:49:42.398Z,1017.65
2017-10-12T09:50:42.405Z,1017.54
2017-10-12T09:51:42.415Z,1017.52
2017-10-12T09:52:42.425Z,1017.52
2017-10-12T09:53:42.438Z,1017.47
2017-10-12T09:54:42.448Z,1017.43
2017-10-12T09:55:42.457Z,1017.55
2017-10-12T09:56:42.465Z,1017.59
2017-10-12T09:57:42.476Z,1017.45
2017-10-12T09:58:42.484Z,1017.47
2017-10-12T09:59:42.494Z,1017.48
2017-10-12T10:00:42.503Z,1017.61
2017-10-12T10:01:42.508Z,1017.54
2017-10-12T10:02:42.515Z,1017.72
2017-10-12T10:03:42.526Z,1017.58
2017-10-12T10:04:42.533Z,1017.59
2017-10-12T10:05:42.541Z,1017.67
2017-10-12T10:06:42.551Z,1017.69
2017-10-12T10:07:42.559Z,1017.63
2017-10-12T10:08:42.566Z,1017.58
2017-10-12T10:09:42.578Z,1017.62
2017-10-12T10:10:42.587Z,1017.70
2017-10-12T10:11:42.594Z,1017.68
2017-10-12T10:12:42.600Z,1017.62
2017-10-12T10:13:42.609Z,1017.65
2017-10-12T10:14:42.615Z,1017.75
2017-10-12T10:15:42.633Z,1017.68
2017-10-12T10:16:42.628Z,1017.80
2017-10-12T10:17:42.631Z,1017.74
2017-10-12T10:18:42.638Z,1017.75
2017-10-12T10:19:42.645Z,1017.76
2017-10-12T10:20:42.654Z,1017.73
2017-10-12T10:21:42.658Z,1017.82
2017-10-12T10:22:42.664Z,1017.80
2017-10-12T10:23:42.672Z,1017.77
2017-10-12T10:24:42.677Z,1017.84
2017-10-12T10:25:42.688Z,1017.86
2017-10-12T10:26:42.695Z,1017.92
2017-10-12T10:27:42.701Z,1017.95
2017-10-12T10:28:42.706Z,1017.89
2017-10-12T10:29:42.713Z,1018.05
2017-10-12T10:30:42.719Z,1018.04
2017-10-12T10:31:42.726Z,1018.08
2017-10-12T10:32:42.732Z,1018.06
2017-10-12T10:33:42.731Z,1018.00
2017-10-12T10:34:42.739Z,1017.94
2017-10-12T10:35:42.745Z,1018.02
2017-10-12T10:36:42.748Z,1018.06
2017-10-12T10:37:42.760Z,1017.98
2017-10-12T10:38:42.763Z,1018.06
2017-10-12T10:39:42.769Z,1018.10
2017-10-12T10:40:42.772Z,1018.07
2017-10-12T10:41:42.773Z,1018.08
2017-10-12T10:42:42.780Z,1018.17
2017-10-12T10:43:42.789Z,1018.08
2017-10-12T10:44:42.790Z,1018.10
2017-10-12T10:45:42.795Z,1018.09
2017-10-12T10:46:42.800Z,1018.20
2017-10-12T10:47:42.806Z,1018.11
2017-10-12T10:48:42.810Z,1018.21
2017-10-12T10:49:42.819Z,1018.15
2017-10-12T10:50:42.825Z,1018.15
2017-10-12T10:51:42.830Z,1018.16
2017-10-12T10:52:42.836Z,1018.24
2017-10-12T10:53:42.840Z,1018.14
2017-10-12T10:54:42.846Z,1018.13
2017-10-12T10:55:42.851Z,1018.19
2017-10-12T10:56:42.855Z,1018.22
2017-10-12T10:57:42.857Z,1018.20
2017-10-12T10:58:42.864Z,1018.31
2017-10-12T10:59:42.868Z,1018.27
2017-10-12T11:00:42.872Z,1018.29
2017-10-12T11:01:42.878Z,1018.23
2017-10-12T11:02:42.885Z,1018.30
2017-10-12T11:03:42.891Z,1018.21
2017-10-12T11:04:42.899Z,1018.11
2017-10-12T11:05:42.905Z,1018.10
2017-10-12T11:06:42.912Z,1018.15
2017-10-12T11:07:42.920Z,1018.14
2017-10-12T11:08:42.930Z,1018.16
2017-10-12T11:09:42.931Z,1018.19
2017-10-12T11:10:42.941Z,1018.17
2017-10-12T11:11:42.945Z,1018.14
2017-10-12T11:12:42.952Z,1018.02
2017-10-12T11:13:42.956Z,1018.02
2017-10-12T11:14:42.960Z,1018.07
2017-10-12T11:15:42.967Z,1018.08
2017-10-12T11:16:42.974Z,1018.11
2017-10-12T11:17:42.985Z,1018.13
2017-10-12T11:18:42.995Z,1018.12
2017-10-12T11:19:42.993Z,1018.15
2017-10-12T11:20:42.999Z,1018.15
2017-10-12T11:21:43.009Z,1018.18
2017-10-12T11:22:43.016Z,1018.17
2017-10-12T11:23:43.023Z,1018.15
2017-10-12T11:24:43.034Z,1018.18
2017-10-12T11:25:43.034Z,1018.17
2017-10-12T11:26:43.037Z,1018.11
2017-10-12T11:27:43.044Z,1018.14
2017-10-12T11:28:43.049Z,1018.19
2017-10-12T11:29:43.049Z,1018.18
2017-10-12T11:30:43.056Z,1018.20
2017-10-12T11:31:43.061Z,1018.25
2017-10-12T11:32:43.066Z,1018.25
2017-10-12T11:33:43.070Z,1018.25
2017-10-12T11:34:43.074Z,1018.26
2017-10-12T11:35:43.080Z,1018.26
2017-10-12T11:36:43.082Z,1018.28
2017-10-12T11:37:43.092Z,1018.32
2017-10-12T11:38:43.097Z,1018.24
2017-10-12T11:39:43.103Z,1018.25
2017-10-12T11:40:43.105Z,1018.31
2017-10-12T11:41:43.113Z,1018.25
2017-10-12T11:42:43.116Z,1018.28
2017-10-12T11:43:43.121Z,1018.23
2017-10-12T11:44:43.123Z,1018.22
2017-10-12T11:45:43.126Z,1018.20
2017-10-12T11:46:43.133Z,1018.16
2017-10-12T11:47:43.133Z,1018.16
2017-10-12T11:48:43.135Z,1018.18
2017-10-12T11:49:43.139Z,1018.11
2017-10-12T11:50:43.142Z,1018.14
2017-10-12T11:51:43.161Z,1018.11
2017-10-12T11:52:43.152Z,1018.17
2017-10-12T11:53:43.159Z,1018.21
2017-10-12T11:54:43.162Z,1018.18
2017-10-12T11:55:43.166Z,1018.18
2017-10-12T11:56:43.172Z,1018.12
2017-10-12T11:57:43.174Z,1018.12
2017-10-12T11:58:43.178Z,1018.10
2017-10-12T11:59:43.181Z,1018.15
2017-10-12T12:00:43.195Z,1018.15
2017-10-12T12:01:43.185Z,1018.06
2017-10-12T12:02:43.188Z,1018.07
2017-10-12T12:03:43.193Z,1018.08
2017-10-12T12:04:43.194Z,1018.07
2017-10-12T12:05:43.197Z,1018.05